EGHH

Bournemouth Airport

Bournemouth, United Kingdom
TAF EGHH 171356Z 1715/1724 26005KT 9999 FEW020
Issued Valid From Valid To
Aug-17 @ 13:56 UTC
(an hour ago)
Aug-17 @ 15:00 UTC
(in 3 minutes)
Aug-18 @ 00:00 UTC
(in 9 hours)
Aug-17 @ 15:00 to Aug-18 @ 00:00
TAF EGHH 171356Z 1715/1724 26005KT 9999 FEW020
Wind Visibility Clouds
260° at 5 knots 10,000+ meters
  • Few at 2,000' AGL
TAF EGHH 171356Z 1715/1724 26005KT 9999 FEW020
Issued Aug-17 @ 13:56 UTC
(an hour ago)
Valid From Aug-17 @ 15:00 UTC
(in 3 minutes)
Valid To Aug-18 @ 00:00 UTC
(in 9 hours)
Aug-17 @ 15:00 - Aug-18 @ 00:00
Wind Visibility
260° at 5 knots 10,000+ meters
Clouds
  • Few at 2,000' AGL